sensor_id;sensor_type;location;lat;lon;timestamp;P1;durP1;ratioP1;P2;durP2;ratioP2
20154;SDS011;10238;49.556;10.956;2022-12-19T00:02:10;34.40;;;16.63;;
20154;SDS011;10238;49.556;10.956;2022-12-19T00:04:58;33.40;;;16.27;;
20154;SDS011;10238;49.556;10.956;2022-12-19T00:07:46;32.28;;;15.30;;
20154;SDS011;10238;49.556;10.956;2022-12-19T00:10:36;35.30;;;16.27;;
20154;SDS011;10238;49.556;10.956;2022-12-19T00:13:24;38.15;;;16.17;;
20154;SDS011;10238;49.556;10.956;2022-12-19T00:16:16;33.47;;;16.30;;
20154;SDS011;10238;49.556;10.956;2022-12-19T00:19:05;35.03;;;16.20;;
20154;SDS011;10238;49.556;10.956;2022-12-19T00:21:55;36.13;;;16.05;;
20154;SDS011;10238;49.556;10.956;2022-12-19T00:24:43;33.50;;;16.73;;
20154;SDS011;10238;49.556;10.956;2022-12-19T00:27:33;29.13;;;14.80;;
20154;SDS011;10238;49.556;10.956;2022-12-19T00:30:22;36.13;;;16.25;;
20154;SDS011;10238;49.556;10.956;2022-12-19T00:33:10;31.35;;;15.18;;
20154;SDS011;10238;49.556;10.956;2022-12-19T00:35:58;35.22;;;16.92;;
20154;SDS011;10238;49.556;10.956;2022-12-19T00:38:47;35.00;;;16.55;;
20154;SDS011;10238;49.556;10.956;2022-12-19T00:41:37;36.53;;;16.52;;
20154;SDS011;10238;49.556;10.956;2022-12-19T00:44:28;34.42;;;16.67;;
20154;SDS011;10238;49.556;10.956;2022-12-19T00:47:16;40.58;;;17.90;;
20154;SDS011;10238;49.556;10.956;2022-12-19T00:50:04;34.53;;;16.20;;
20154;SDS011;10238;49.556;10.956;2022-12-19T00:52:53;33.90;;;16.25;;
20154;SDS011;10238;49.556;10.956;2022-12-19T00:55:41;34.22;;;15.32;;
20154;SDS011;10238;49.556;10.956;2022-12-19T00:58:29;30.90;;;15.52;;
20154;SDS011;10238;49.556;10.956;2022-12-19T01:01:22;32.35;;;15.32;;
20154;SDS011;10238;49.556;10.956;2022-12-19T01:04:12;38.72;;;18.20;;
20154;SDS011;10238;49.556;10.956;2022-12-19T01:07:13;34.45;;;16.73;;
20154;SDS011;10238;49.556;10.956;2022-12-19T01:10:01;30.55;;;16.05;;
20154;SDS011;10238;49.556;10.956;2022-12-19T01:12:50;32.90;;;16.77;;
20154;SDS011;10238;49.556;10.956;2022-12-19T01:15:37;35.65;;;17.35;;
20154;SDS011;10238;49.556;10.956;2022-12-19T01:18:27;35.00;;;16.25;;
20154;SDS011;10238;49.556;10.956;2022-12-19T01:21:15;37.47;;;17.10;;
20154;SDS011;10238;49.556;10.956;2022-12-19T01:24:04;38.00;;;17.17;;
20154;SDS011;10238;49.556;10.956;2022-12-19T01:26:52;39.42;;;17.35;;
20154;SDS011;10238;49.556;10.956;2022-12-19T01:29:40;37.85;;;16.90;;
20154;SDS011;10238;49.556;10.956;2022-12-19T01:32:37;37.58;;;17.38;;
20154;SDS011;10238;49.556;10.956;2022-12-19T01:35:27;33.40;;;16.27;;
20154;SDS011;10238;49.556;10.956;2022-12-19T01:38:16;37.20;;;15.85;;
20154;SDS011;10238;49.556;10.956;2022-12-19T01:41:05;31.52;;;16.35;;
20154;SDS011;10238;49.556;10.956;2022-12-19T01:43:54;36.58;;;16.52;;
20154;SDS011;10238;49.556;10.956;2022-12-19T01:46:44;35.05;;;16.15;;
20154;SDS011;10238;49.556;10.956;2022-12-19T01:49:34;37.22;;;16.88;;
20154;SDS011;10238;49.556;10.956;2022-12-19T01:52:24;35.33;;;17.30;;
20154;SDS011;10238;49.556;10.956;2022-12-19T01:55:11;35.40;;;17.55;;
20154;SDS011;10238;49.556;10.956;2022-12-19T01:58:00;35.35;;;16.38;;
20154;SDS011;10238;49.556;10.956;2022-12-19T02:00:48;34.28;;;16.50;;
20154;SDS011;10238;49.556;10.956;2022-12-19T02:03:36;40.83;;;17.75;;
20154;SDS011;10238;49.556;10.956;2022-12-19T02:06:26;35.97;;;16.77;;
20154;SDS011;10238;49.556;10.956;2022-12-19T02:09:16;33.92;;;16.60;;
20154;SDS011;10238;49.556;10.956;2022-12-19T02:12:04;33.47;;;14.77;;
20154;SDS011;10238;49.556;10.956;2022-12-19T02:14:53;38.75;;;17.33;;
20154;SDS011;10238;49.556;10.956;2022-12-19T02:17:57;33.92;;;16.27;;
20154;SDS011;10238;49.556;10.956;2022-12-19T02:21:06;36.80;;;17.38;;
20154;SDS011;10238;49.556;10.956;2022-12-19T02:27:53;40.10;;;18.00;;
20154;SDS011;10238;49.556;10.956;2022-12-19T02:31:01;36.53;;;17.73;;
20154;SDS011;10238;49.556;10.956;2022-12-19T02:34:03;35.63;;;16.92;;
20154;SDS011;10238;49.556;10.956;2022-12-19T02:37:04;39.08;;;18.10;;
20154;SDS011;10238;49.556;10.956;2022-12-19T02:39:55;39.25;;;17.33;;
20154;SDS011;10238;49.556;10.956;2022-12-19T02:42:49;38.53;;;17.20;;
20154;SDS011;10238;49.556;10.956;2022-12-19T02:45:42;36.15;;;16.02;;
20154;SDS011;10238;49.556;10.956;2022-12-19T02:48:34;41.35;;;18.13;;
20154;SDS011;10238;49.556;10.956;2022-12-19T02:51:22;40.33;;;18.27;;
20154;SDS011;10238;49.556;10.956;2022-12-19T02:54:10;38.20;;;17.50;;
20154;SDS011;10238;49.556;10.956;2022-12-19T02:57:00;38.90;;;18.15;;
20154;SDS011;10238;49.556;10.956;2022-12-19T02:59:59;39.03;;;18.38;;
20154;SDS011;10238;49.556;10.956;2022-12-19T03:02:53;34.90;;;17.90;;
20154;SDS011;10238;49.556;10.956;2022-12-19T03:05:53;32.45;;;16.88;;
20154;SDS011;10238;49.556;10.956;2022-12-19T03:08:49;38.22;;;17.88;;
20154;SDS011;10238;49.556;10.956;2022-12-19T03:11:47;35.75;;;16.15;;
20154;SDS011;10238;49.556;10.956;2022-12-19T03:14:38;39.45;;;18.98;;
20154;SDS011;10238;49.556;10.956;2022-12-19T03:17:27;40.10;;;17.23;;
20154;SDS011;10238;49.556;10.956;2022-12-19T03:20:21;40.28;;;18.05;;
20154;SDS011;10238;49.556;10.956;2022-12-19T03:23:19;34.13;;;16.30;;
20154;SDS011;10238;49.556;10.956;2022-12-19T03:26:08;38.67;;;18.48;;
20154;SDS011;10238;49.556;10.956;2022-12-19T03:29:01;38.38;;;17.77;;
20154;SDS011;10238;49.556;10.956;2022-12-19T03:31:55;39.35;;;18.00;;
20154;SDS011;10238;49.556;10.956;2022-12-19T03:34:47;40.33;;;16.73;;
20154;SDS011;10238;49.556;10.956;2022-12-19T03:37:38;41.75;;;19.02;;
20154;SDS011;10238;49.556;10.956;2022-12-19T03:40:30;37.83;;;17.70;;
20154;SDS011;10238;49.556;10.956;2022-12-19T03:43:22;37.92;;;17.25;;
20154;SDS011;10238;49.556;10.956;2022-12-19T03:46:11;42.47;;;18.90;;
20154;SDS011;10238;49.556;10.956;2022-12-19T03:51:53;42.40;;;17.63;;
20154;SDS011;10238;49.556;10.956;2022-12-19T03:54:48;38.55;;;16.70;;
20154;SDS011;10238;49.556;10.956;2022-12-19T03:57:42;42.13;;;18.70;;
20154;SDS011;10238;49.556;10.956;2022-12-19T04:00:37;41.25;;;17.05;;
20154;SDS011;10238;49.556;10.956;2022-12-19T04:03:31;44.30;;;17.80;;
20154;SDS011;10238;49.556;10.956;2022-12-19T04:06:20;36.08;;;16.67;;
20154;SDS011;10238;49.556;10.956;2022-12-19T04:09:08;39.05;;;16.60;;
20154;SDS011;10238;49.556;10.956;2022-12-19T04:14:53;43.45;;;18.42;;
20154;SDS011;10238;49.556;10.956;2022-12-19T04:17:41;39.20;;;16.92;;
20154;SDS011;10238;49.556;10.956;2022-12-19T04:20:34;46.47;;;17.88;;
20154;SDS011;10238;49.556;10.956;2022-12-19T04:23:26;36.97;;;16.60;;
20154;SDS011;10238;49.556;10.956;2022-12-19T04:29:07;43.65;;;18.42;;
20154;SDS011;10238;49.556;10.956;2022-12-19T04:31:58;37.13;;;18.13;;
20154;SDS011;10238;49.556;10.956;2022-12-19T04:34:47;41.35;;;17.48;;
20154;SDS011;10238;49.556;10.956;2022-12-19T04:37:35;35.22;;;16.85;;
20154;SDS011;10238;49.556;10.956;2022-12-19T04:40:23;40.50;;;18.33;;
20154;SDS011;10238;49.556;10.956;2022-12-19T04:43:11;39.50;;;17.88;;
20154;SDS011;10238;49.556;10.956;2022-12-19T04:45:59;41.55;;;17.67;;
20154;SDS011;10238;49.556;10.956;2022-12-19T04:48:49;42.00;;;17.88;;
20154;SDS011;10238;49.556;10.956;2022-12-19T04:51:37;39.85;;;18.20;;
20154;SDS011;10238;49.556;10.956;2022-12-19T04:54:25;42.75;;;18.02;;
20154;SDS011;10238;49.556;10.956;2022-12-19T04:57:13;36.25;;;17.17;;
20154;SDS011;10238;49.556;10.956;2022-12-19T05:00:01;37.30;;;17.15;;
20154;SDS011;10238;49.556;10.956;2022-12-19T05:02:51;41.83;;;18.98;;
20154;SDS011;10238;49.556;10.956;2022-12-19T05:05:41;40.03;;;19.77;;
20154;SDS011;10238;49.556;10.956;2022-12-19T05:08:29;41.42;;;18.90;;
20154;SDS011;10238;49.556;10.956;2022-12-19T05:11:17;43.08;;;18.90;;
20154;SDS011;10238;49.556;10.956;2022-12-19T05:14:05;41.28;;;18.05;;
20154;SDS011;10238;49.556;10.956;2022-12-19T05:16:53;37.15;;;17.85;;
20154;SDS011;10238;49.556;10.956;2022-12-19T05:19:46;40.10;;;18.58;;
20154;SDS011;10238;49.556;10.956;2022-12-19T05:22:36;42.83;;;18.23;;
20154;SDS011;10238;49.556;10.956;2022-12-19T05:25:24;46.17;;;19.30;;
20154;SDS011;10238;49.556;10.956;2022-12-19T05:28:12;44.28;;;19.25;;
20154;SDS011;10238;49.556;10.956;2022-12-19T05:31:04;40.88;;;17.95;;
20154;SDS011;10238;49.556;10.956;2022-12-19T05:33:53;43.78;;;19.58;;
20154;SDS011;10238;49.556;10.956;2022-12-19T05:36:43;44.20;;;18.52;;
20154;SDS011;10238;49.556;10.956;2022-12-19T05:39:32;42.85;;;18.88;;
20154;SDS011;10238;49.556;10.956;2022-12-19T05:42:23;43.20;;;20.00;;
20154;SDS011;10238;49.556;10.956;2022-12-19T05:45:12;40.20;;;19.30;;
20154;SDS011;10238;49.556;10.956;2022-12-19T05:48:00;40.10;;;18.15;;
20154;SDS011;10238;49.556;10.956;2022-12-19T05:50:48;48.90;;;19.58;;
20154;SDS011;10238;49.556;10.956;2022-12-19T05:53:36;41.75;;;18.88;;
20154;SDS011;10238;49.556;10.956;2022-12-19T05:56:26;43.13;;;20.02;;
20154;SDS011;10238;49.556;10.956;2022-12-19T05:59:14;42.35;;;18.42;;
20154;SDS011;10238;49.556;10.956;2022-12-19T06:02:02;43.03;;;18.50;;
20154;SDS011;10238;49.556;10.956;2022-12-19T06:04:50;41.08;;;19.73;;
20154;SDS011;10238;49.556;10.956;2022-12-19T06:07:39;41.35;;;18.55;;
20154;SDS011;10238;49.556;10.956;2022-12-19T06:10:27;47.03;;;20.90;;
20154;SDS011;10238;49.556;10.956;2022-12-19T06:13:16;44.85;;;19.92;;
20154;SDS011;10238;49.556;10.956;2022-12-19T06:16:09;44.17;;;19.60;;
20154;SDS011;10238;49.556;10.956;2022-12-19T06:18:59;43.50;;;19.67;;
20154;SDS011;10238;49.556;10.956;2022-12-19T06:21:47;39.08;;;18.98;;
20154;SDS011;10238;49.556;10.956;2022-12-19T06:24:35;48.97;;;19.77;;
20154;SDS011;10238;49.556;10.956;2022-12-19T06:27:23;42.63;;;19.73;;
20154;SDS011;10238;49.556;10.956;2022-12-19T06:30:15;47.67;;;20.88;;
20154;SDS011;10238;49.556;10.956;2022-12-19T06:33:03;45.65;;;19.77;;
20154;SDS011;10238;49.556;10.956;2022-12-19T06:35:56;48.45;;;22.00;;
20154;SDS011;10238;49.556;10.956;2022-12-19T06:38:47;46.53;;;20.38;;
20154;SDS011;10238;49.556;10.956;2022-12-19T06:41:35;44.55;;;21.15;;
20154;SDS011;10238;49.556;10.956;2022-12-19T06:44:41;44.92;;;18.88;;
20154;SDS011;10238;49.556;10.956;2022-12-19T06:47:30;49.25;;;20.83;;
20154;SDS011;10238;49.556;10.956;2022-12-19T06:50:18;41.53;;;19.63;;
20154;SDS011;10238;49.556;10.956;2022-12-19T06:53:08;42.97;;;19.38;;
20154;SDS011;10238;49.556;10.956;2022-12-19T06:55:57;41.13;;;19.90;;
20154;SDS011;10238;49.556;10.956;2022-12-19T06:58:45;44.60;;;20.42;;
20154;SDS011;10238;49.556;10.956;2022-12-19T07:01:36;46.72;;;20.13;;
20154;SDS011;10238;49.556;10.956;2022-12-19T07:04:33;45.25;;;20.38;;
20154;SDS011;10238;49.556;10.956;2022-12-19T07:07:24;44.42;;;18.88;;
20154;SDS011;10238;49.556;10.956;2022-12-19T07:10:13;46.45;;;21.35;;
20154;SDS011;10238;49.556;10.956;2022-12-19T07:13:01;45.50;;;20.05;;
20154;SDS011;10238;49.556;10.956;2022-12-19T07:15:49;43.60;;;21.10;;
20154;SDS011;10238;49.556;10.956;2022-12-19T07:18:38;48.45;;;20.52;;
20154;SDS011;10238;49.556;10.956;2022-12-19T07:21:28;50.08;;;21.67;;
20154;SDS011;10238;49.556;10.956;2022-12-19T07:24:16;45.38;;;19.60;;
20154;SDS011;10238;49.556;10.956;2022-12-19T07:27:07;50.25;;;19.90;;
20154;SDS011;10238;49.556;10.956;2022-12-19T07:29:55;47.75;;;20.67;;
20154;SDS011;10238;49.556;10.956;2022-12-19T07:32:43;47.50;;;20.23;;
20154;SDS011;10238;49.556;10.956;2022-12-19T07:35:31;46.78;;;19.88;;
20154;SDS011;10238;49.556;10.956;2022-12-19T07:38:20;42.63;;;19.33;;
20154;SDS011;10238;49.556;10.956;2022-12-19T07:41:08;47.40;;;20.90;;
20154;SDS011;10238;49.556;10.956;2022-12-19T07:43:56;43.78;;;20.20;;
20154;SDS011;10238;49.556;10.956;2022-12-19T07:46:44;45.78;;;19.08;;
20154;SDS011;10238;49.556;10.956;2022-12-19T07:49:32;43.35;;;19.90;;
20154;SDS011;10238;49.556;10.956;2022-12-19T07:52:20;41.78;;;20.10;;
20154;SDS011;10238;49.556;10.956;2022-12-19T07:55:10;44.47;;;19.60;;
20154;SDS011;10238;49.556;10.956;2022-12-19T07:57:57;43.90;;;19.67;;
20154;SDS011;10238;49.556;10.956;2022-12-19T08:00:52;50.17;;;21.60;;
20154;SDS011;10238;49.556;10.956;2022-12-19T08:03:40;44.67;;;20.20;;
20154;SDS011;10238;49.556;10.956;2022-12-19T08:06:29;45.92;;;19.48;;
20154;SDS011;10238;49.556;10.956;2022-12-19T08:09:23;45.80;;;19.33;;
20154;SDS011;10238;49.556;10.956;2022-12-19T08:12:13;49.20;;;20.98;;
20154;SDS011;10238;49.556;10.956;2022-12-19T08:15:02;45.80;;;19.80;;
20154;SDS011;10238;49.556;10.956;2022-12-19T08:17:53;50.67;;;21.38;;
20154;SDS011;10238;49.556;10.956;2022-12-19T08:20:42;48.28;;;20.48;;
20154;SDS011;10238;49.556;10.956;2022-12-19T08:23:31;50.15;;;21.25;;
20154;SDS011;10238;49.556;10.956;2022-12-19T08:26:20;46.63;;;20.33;;
20154;SDS011;10238;49.556;10.956;2022-12-19T08:29:11;45.72;;;20.27;;
20154;SDS011;10238;49.556;10.956;2022-12-19T08:31:59;48.22;;;21.08;;
20154;SDS011;10238;49.556;10.956;2022-12-19T08:34:47;48.78;;;21.42;;
20154;SDS011;10238;49.556;10.956;2022-12-19T08:37:35;48.03;;;21.85;;
20154;SDS011;10238;49.556;10.956;2022-12-19T08:40:24;46.45;;;19.70;;
20154;SDS011;10238;49.556;10.956;2022-12-19T08:43:12;45.53;;;20.27;;
20154;SDS011;10238;49.556;10.956;2022-12-19T08:46:01;53.08;;;22.13;;
20154;SDS011;10238;49.556;10.956;2022-12-19T08:48:50;50.65;;;21.35;;
20154;SDS011;10238;49.556;10.956;2022-12-19T08:51:38;48.83;;;20.80;;
20154;SDS011;10238;49.556;10.956;2022-12-19T08:54:28;47.67;;;20.33;;
20154;SDS011;10238;49.556;10.956;2022-12-19T08:57:16;47.30;;;20.60;;
20154;SDS011;10238;49.556;10.956;2022-12-19T09:00:05;49.45;;;22.02;;
20154;SDS011;10238;49.556;10.956;2022-12-19T09:02:57;45.97;;;19.98;;
20154;SDS011;10238;49.556;10.956;2022-12-19T09:05:45;49.42;;;21.83;;
20154;SDS011;10238;49.556;10.956;2022-12-19T09:08:51;46.20;;;20.23;;
20154;SDS011;10238;49.556;10.956;2022-12-19T09:11:46;48.65;;;22.95;;
20154;SDS011;10238;49.556;10.956;2022-12-19T09:14:35;48.30;;;19.95;;
20154;SDS011;10238;49.556;10.956;2022-12-19T09:17:23;50.10;;;20.02;;
20154;SDS011;10238;49.556;10.956;2022-12-19T09:20:12;48.10;;;20.40;;
20154;SDS011;10238;49.556;10.956;2022-12-19T09:23:07;51.75;;;21.35;;
20154;SDS011;10238;49.556;10.956;2022-12-19T09:25:56;47.75;;;20.98;;
20154;SDS011;10238;49.556;10.956;2022-12-19T09:28:47;48.35;;;21.17;;
20154;SDS011;10238;49.556;10.956;2022-12-19T09:31:36;52.63;;;22.02;;
20154;SDS011;10238;49.556;10.956;2022-12-19T09:34:24;45.95;;;21.33;;
20154;SDS011;10238;49.556;10.956;2022-12-19T09:37:24;45.67;;;20.15;;
20154;SDS011;10238;49.556;10.956;2022-12-19T09:40:12;44.67;;;20.60;;
20154;SDS011;10238;49.556;10.956;2022-12-19T09:43:04;45.13;;;21.25;;
20154;SDS011;10238;49.556;10.956;2022-12-19T09:46:08;41.60;;;18.55;;
20154;SDS011;10238;49.556;10.956;2022-12-19T09:49:08;48.63;;;19.98;;
20154;SDS011;10238;49.556;10.956;2022-12-19T09:51:58;43.10;;;19.45;;
20154;SDS011;10238;49.556;10.956;2022-12-19T09:54:52;47.17;;;21.10;;
20154;SDS011;10238;49.556;10.956;2022-12-19T09:57:43;49.92;;;21.45;;
20154;SDS011;10238;49.556;10.956;2022-12-19T10:00:38;49.38;;;22.98;;
20154;SDS011;10238;49.556;10.956;2022-12-19T10:03:29;46.88;;;20.13;;
20154;SDS011;10238;49.556;10.956;2022-12-19T10:06:24;49.22;;;20.52;;
20154;SDS011;10238;49.556;10.956;2022-12-19T10:09:33;48.58;;;20.65;;
20154;SDS011;10238;49.556;10.956;2022-12-19T10:12:46;47.08;;;21.20;;
20154;SDS011;10238;49.556;10.956;2022-12-19T10:15:59;50.88;;;21.88;;
20154;SDS011;10238;49.556;10.956;2022-12-19T10:18:53;49.22;;;22.33;;
20154;SDS011;10238;49.556;10.956;2022-12-19T10:21:44;45.25;;;19.25;;
20154;SDS011;10238;49.556;10.956;2022-12-19T10:25:05;43.88;;;20.38;;
20154;SDS011;10238;49.556;10.956;2022-12-19T10:28:14;42.95;;;18.98;;
20154;SDS011;10238;49.556;10.956;2022-12-19T10:31:18;41.33;;;19.08;;
20154;SDS011;10238;49.556;10.956;2022-12-19T10:34:14;48.38;;;20.83;;
20154;SDS011;10238;49.556;10.956;2022-12-19T10:37:08;51.50;;;20.85;;
20154;SDS011;10238;49.556;10.956;2022-12-19T10:40:18;49.95;;;21.33;;
20154;SDS011;10238;49.556;10.956;2022-12-19T10:43:16;46.85;;;19.65;;
20154;SDS011;10238;49.556;10.956;2022-12-19T10:46:21;44.40;;;20.52;;
20154;SDS011;10238;49.556;10.956;2022-12-19T10:49:16;50.75;;;22.23;;
20154;SDS011;10238;49.556;10.956;2022-12-19T10:52:07;47.10;;;21.73;;
20154;SDS011;10238;49.556;10.956;2022-12-19T10:54:56;47.90;;;22.02;;
20154;SDS011;10238;49.556;10.956;2022-12-19T10:57:44;44.20;;;20.73;;
20154;SDS011;10238;49.556;10.956;2022-12-19T11:00:34;45.58;;;20.52;;
20154;SDS011;10238;49.556;10.956;2022-12-19T11:03:23;46.80;;;20.52;;
20154;SDS011;10238;49.556;10.956;2022-12-19T11:09:27;49.42;;;21.00;;
20154;SDS011;10238;49.556;10.956;2022-12-19T11:12:17;50.42;;;23.05;;
20154;SDS011;10238;49.556;10.956;2022-12-19T11:15:25;51.13;;;22.45;;
20154;SDS011;10238;49.556;10.956;2022-12-19T11:18:39;45.15;;;19.88;;
20154;SDS011;10238;49.556;10.956;2022-12-19T11:21:48;45.42;;;19.67;;
20154;SDS011;10238;49.556;10.956;2022-12-19T11:24:56;47.35;;;21.25;;
20154;SDS011;10238;49.556;10.956;2022-12-19T11:28:04;42.42;;;19.33;;
20154;SDS011;10238;49.556;10.956;2022-12-19T11:31:22;47.13;;;20.60;;
20154;SDS011;10238;49.556;10.956;2022-12-19T11:34:35;43.22;;;20.20;;
20154;SDS011;10238;49.556;10.956;2022-12-19T11:37:24;48.60;;;20.45;;
20154;SDS011;10238;49.556;10.956;2022-12-19T11:40:21;46.05;;;20.70;;
20154;SDS011;10238;49.556;10.956;2022-12-19T11:43:18;46.63;;;20.38;;
20154;SDS011;10238;49.556;10.956;2022-12-19T11:46:35;43.28;;;20.40;;
20154;SDS011;10238;49.556;10.956;2022-12-19T11:49:31;45.25;;;20.25;;
20154;SDS011;10238;49.556;10.956;2022-12-19T11:52:29;42.72;;;20.17;;
20154;SDS011;10238;49.556;10.956;2022-12-19T11:55:45;45.05;;;19.83;;
20154;SDS011;10238;49.556;10.956;2022-12-19T11:58:38;44.03;;;20.15;;
20154;SDS011;10238;49.556;10.956;2022-12-19T12:01:33;41.55;;;19.83;;
20154;SDS011;10238;49.556;10.956;2022-12-19T12:04:35;47.10;;;21.02;;
20154;SDS011;10238;49.556;10.956;2022-12-19T12:07:41;47.45;;;20.15;;
20154;SDS011;10238;49.556;10.956;2022-12-19T12:10:51;43.78;;;19.80;;
20154;SDS011;10238;49.556;10.956;2022-12-19T12:14:11;46.20;;;20.70;;
20154;SDS011;10238;49.556;10.956;2022-12-19T12:17:27;47.22;;;20.80;;
20154;SDS011;10238;49.556;10.956;2022-12-19T12:20:50;44.95;;;20.02;;
20154;SDS011;10238;49.556;10.956;2022-12-19T12:24:09;40.17;;;18.98;;
20154;SDS011;10238;49.556;10.956;2022-12-19T12:27:41;39.92;;;18.60;;
20154;SDS011;10238;49.556;10.956;2022-12-19T12:31:02;44.20;;;19.80;;
20154;SDS011;10238;49.556;10.956;2022-12-19T12:34:22;41.08;;;19.05;;
20154;SDS011;10238;49.556;10.956;2022-12-19T12:37:45;42.70;;;19.10;;
20154;SDS011;10238;49.556;10.956;2022-12-19T12:41:03;37.85;;;18.17;;
20154;SDS011;10238;49.556;10.956;2022-12-19T12:44:05;43.65;;;19.08;;
20154;SDS011;10238;49.556;10.956;2022-12-19T12:46:57;42.33;;;19.58;;
20154;SDS011;10238;49.556;10.956;2022-12-19T12:52:39;40.97;;;19.20;;
20154;SDS011;10238;49.556;10.956;2022-12-19T12:55:33;40.53;;;19.13;;
20154;SDS011;10238;49.556;10.956;2022-12-19T12:59:02;40.25;;;18.42;;
20154;SDS011;10238;49.556;10.956;2022-12-19T13:01:53;40.63;;;18.08;;
20154;SDS011;10238;49.556;10.956;2022-12-19T13:04:53;43.55;;;19.33;;
20154;SDS011;10238;49.556;10.956;2022-12-19T13:07:49;39.28;;;19.08;;
20154;SDS011;10238;49.556;10.956;2022-12-19T13:10:40;43.75;;;18.95;;
20154;SDS011;10238;49.556;10.956;2022-12-19T13:13:47;42.73;;;19.40;;
20154;SDS011;10238;49.556;10.956;2022-12-19T13:16:48;42.28;;;18.90;;
20154;SDS011;10238;49.556;10.956;2022-12-19T13:19:38;43.90;;;19.95;;
20154;SDS011;10238;49.556;10.956;2022-12-19T13:22:41;41.80;;;18.25;;
20154;SDS011;10238;49.556;10.956;2022-12-19T13:28:40;37.78;;;17.92;;
20154;SDS011;10238;49.556;10.956;2022-12-19T13:31:29;42.03;;;20.63;;
20154;SDS011;10238;49.556;10.956;2022-12-19T13:37:21;42.85;;;19.50;;
20154;SDS011;10238;49.556;10.956;2022-12-19T13:40:49;38.00;;;18.58;;
20154;SDS011;10238;49.556;10.956;2022-12-19T13:44:07;40.20;;;18.20;;
20154;SDS011;10238;49.556;10.956;2022-12-19T13:46:54;42.05;;;18.80;;
20154;SDS011;10238;49.556;10.956;2022-12-19T13:49:42;43.35;;;18.70;;
